createdAt,value
2023-09-05T00:02:01.989Z,4.00
2023-09-05T00:04:49.995Z,4.30
2023-09-05T00:07:41.502Z,3.90
2023-09-05T00:10:29.453Z,4.15
2023-09-05T00:13:17.428Z,4.00
2023-09-05T00:16:05.442Z,4.47
2023-09-05T00:18:53.466Z,4.60
2023-09-05T00:21:41.435Z,4.40
2023-09-05T00:24:36.373Z,3.95
2023-09-05T00:27:24.329Z,4.25
2023-09-05T00:30:15.303Z,3.85
2023-09-05T00:33:03.529Z,4.68
2023-09-05T00:35:54.536Z,4.78
2023-09-05T00:38:43.421Z,4.45
2023-09-05T00:41:31.356Z,4.82
2023-09-05T00:44:19.874Z,4.35
2023-09-05T00:47:08.156Z,3.90
2023-09-05T00:49:56.210Z,4.20
2023-09-05T00:52:45.975Z,5.07
2023-09-05T00:55:33.992Z,4.55
2023-09-05T00:58:22.171Z,4.43
2023-09-05T01:01:10.145Z,4.57
2023-09-05T01:03:59.058Z,4.60
2023-09-05T01:07:05.176Z,4.70
2023-09-05T01:10:12.780Z,4.53
2023-09-05T01:13:00.774Z,4.57
2023-09-05T01:15:48.753Z,4.15
2023-09-05T01:18:40.945Z,3.85
2023-09-05T01:21:37.189Z,4.47
2023-09-05T01:24:25.639Z,4.03
2023-09-05T01:27:20.630Z,4.18
2023-09-05T01:30:09.265Z,4.30
2023-09-05T01:32:57.278Z,4.40
2023-09-05T01:35:45.279Z,4.28
2023-09-05T01:38:33.799Z,4.10
2023-09-05T01:41:21.915Z,4.28
2023-09-05T01:44:09.858Z,4.22
2023-09-05T01:46:57.885Z,3.83
2023-09-05T01:49:45.840Z,4.60
2023-09-05T01:52:33.846Z,4.38
2023-09-05T01:55:21.816Z,4.45
2023-09-05T01:58:09.765Z,4.28
2023-09-05T02:01:01.960Z,4.20
2023-09-05T02:03:50.309Z,4.32
2023-09-05T02:06:38.329Z,3.88
2023-09-05T02:09:26.384Z,3.70
2023-09-05T02:12:15.670Z,4.05
2023-09-05T02:15:05.133Z,4.28
2023-09-05T02:17:56.835Z,3.70
2023-09-05T02:20:49.414Z,4.32
2023-09-05T02:23:37.450Z,4.18
2023-09-05T02:26:25.374Z,4.38
2023-09-05T02:29:13.309Z,4.10
2023-09-05T02:32:01.250Z,4.07
2023-09-05T02:34:53.403Z,3.67
2023-09-05T02:37:42.395Z,3.83
2023-09-05T02:40:30.328Z,3.75
2023-09-05T02:43:18.494Z,4.03
2023-09-05T02:46:06.576Z,3.78
2023-09-05T02:48:54.529Z,3.70
2023-09-05T02:51:42.556Z,3.80
2023-09-05T02:54:30.577Z,4.07
2023-09-05T02:57:19.222Z,3.70
2023-09-05T03:00:08.455Z,4.30
2023-09-05T03:02:57.427Z,4.00
2023-09-05T03:05:46.012Z,3.88
2023-09-05T03:08:36.085Z,3.80
2023-09-05T03:11:24.966Z,3.95
2023-09-05T03:14:12.937Z,4.70
2023-09-05T03:17:03.309Z,4.20
2023-09-05T03:19:51.275Z,3.83
2023-09-05T03:22:39.335Z,4.03
2023-09-05T03:25:27.295Z,3.90
2023-09-05T03:28:15.450Z,4.10
2023-09-05T03:31:05.939Z,4.63
2023-09-05T03:33:54.426Z,4.65
2023-09-05T03:36:42.379Z,4.35
2023-09-05T03:39:30.339Z,4.78
2023-09-05T03:42:18.356Z,4.20
2023-09-05T03:45:07.099Z,4.38
2023-09-05T03:48:01.468Z,3.88
2023-09-05T03:50:50.531Z,3.92
2023-09-05T03:53:38.711Z,5.15
2023-09-05T03:56:28.412Z,4.22
2023-09-05T03:59:16.900Z,4.18
2023-09-05T04:02:04.985Z,4.22
2023-09-05T04:04:56.258Z,4.47
2023-09-05T04:07:44.172Z,4.20
2023-09-05T04:10:32.883Z,4.22
2023-09-05T04:13:20.843Z,4.15
2023-09-05T04:16:09.104Z,4.45
2023-09-05T04:18:57.129Z,4.45
2023-09-05T04:21:45.311Z,3.83
2023-09-05T04:24:33.445Z,4.22
2023-09-05T04:27:22.894Z,4.47
2023-09-05T04:30:14.134Z,4.07
2023-09-05T04:33:04.350Z,3.83
2023-09-05T04:35:52.697Z,4.25
2023-09-05T04:38:42.257Z,4.13
2023-09-05T04:41:30.183Z,4.03
2023-09-05T04:44:18.202Z,4.00
2023-09-05T04:47:25.271Z,4.70
2023-09-05T04:50:13.287Z,4.47
2023-09-05T04:53:01.666Z,4.70
2023-09-05T04:55:52.901Z,4.80
2023-09-05T04:58:40.845Z,4.65
2023-09-05T05:01:28.837Z,4.63
2023-09-05T05:04:16.870Z,4.30
2023-09-05T05:07:05.031Z,4.85
2023-09-05T05:09:53.098Z,4.72
2023-09-05T05:12:41.731Z,4.53
2023-09-05T05:15:29.684Z,4.68
2023-09-05T05:18:17.672Z,4.70
2023-09-05T05:21:05.919Z,4.18
2023-09-05T05:23:53.987Z,4.50
2023-09-05T05:26:42.280Z,4.47
2023-09-05T05:29:33.908Z,4.85
2023-09-05T05:32:22.002Z,4.28
2023-09-05T05:35:11.108Z,5.13
2023-09-05T05:37:59.098Z,4.22
2023-09-05T05:40:47.066Z,4.22
2023-09-05T05:43:35.099Z,4.70
2023-09-05T05:46:23.326Z,4.65
2023-09-05T05:49:11.415Z,4.72
2023-09-05T05:52:00.156Z,4.93
2023-09-05T05:54:48.234Z,4.22
2023-09-05T05:57:36.362Z,4.00
2023-09-05T06:00:26.278Z,4.43
2023-09-05T06:03:14.535Z,4.15
2023-09-05T06:06:04.521Z,4.35
2023-09-05T06:08:52.627Z,3.47
2023-09-05T06:11:40.665Z,4.05
2023-09-05T06:14:28.883Z,3.88
2023-09-05T06:17:16.860Z,4.57
2023-09-05T06:20:05.451Z,3.47
2023-09-05T06:22:53.388Z,3.22
2023-09-05T06:25:41.524Z,3.80
2023-09-05T06:28:29.565Z,4.32
2023-09-05T06:31:17.532Z,4.03
2023-09-05T06:34:05.785Z,3.80
2023-09-05T06:36:54.638Z,3.60
2023-09-05T06:39:42.618Z,4.50
2023-09-05T06:42:30.532Z,4.57
2023-09-05T06:45:18.884Z,4.00
2023-09-05T06:48:07.217Z,3.60
2023-09-05T06:50:55.249Z,4.72
2023-09-05T06:53:43.224Z,3.92
2023-09-05T06:56:31.179Z,3.67
2023-09-05T06:59:19.258Z,4.88
2023-09-05T07:02:07.422Z,4.35
2023-09-05T07:04:55.501Z,5.53
2023-09-05T07:07:43.441Z,6.78
2023-09-05T07:10:31.398Z,7.45
2023-09-05T07:13:19.457Z,6.13
2023-09-05T07:16:07.481Z,11.10
2023-09-05T07:18:55.599Z,5.25
2023-09-05T07:21:43.587Z,5.63
2023-09-05T07:24:32.173Z,5.30
2023-09-05T07:27:21.495Z,4.03
2023-09-05T07:30:10.060Z,6.55
2023-09-05T07:32:58.175Z,4.78
2023-09-05T07:35:46.151Z,5.85
2023-09-05T07:38:34.234Z,4.68
2023-09-05T07:41:22.548Z,6.65
2023-09-05T07:44:10.599Z,4.20
2023-09-05T07:46:58.543Z,4.30
2023-09-05T07:49:46.498Z,6.45
2023-09-05T07:52:35.280Z,5.18
2023-09-05T07:55:23.349Z,3.97
2023-09-05T07:58:11.655Z,4.65
2023-09-05T08:01:01.052Z,5.25
2023-09-05T08:03:49.187Z,4.15
2023-09-05T08:06:37.301Z,4.03
2023-09-05T08:09:25.320Z,5.03
2023-09-05T08:12:14.446Z,4.07
2023-09-05T08:15:02.541Z,4.18
2023-09-05T08:17:51.779Z,3.85
2023-09-05T08:20:40.751Z,3.95
2023-09-05T08:23:28.701Z,3.88
2023-09-05T08:26:17.722Z,3.67
2023-09-05T08:29:07.378Z,3.50
2023-09-05T08:31:55.567Z,3.60
2023-09-05T08:34:43.623Z,3.33
2023-09-05T08:37:31.763Z,3.75
2023-09-05T08:40:21.398Z,3.55
2023-09-05T08:43:10.524Z,3.28
2023-09-05T08:46:03.900Z,3.80
2023-09-05T08:48:55.688Z,3.67
2023-09-05T08:51:45.706Z,3.72
2023-09-05T08:54:33.776Z,3.83
2023-09-05T08:57:22.257Z,3.83
2023-09-05T09:00:10.619Z,3.67
2023-09-05T09:02:59.293Z,3.40
2023-09-05T09:05:48.760Z,3.05
2023-09-05T09:08:42.568Z,3.45
2023-09-05T09:11:30.645Z,3.25
2023-09-05T09:14:24.878Z,5.05
2023-09-05T09:17:12.888Z,3.65
2023-09-05T09:20:00.890Z,3.30
2023-09-05T09:22:51.744Z,3.40
2023-09-05T09:25:50.148Z,3.78
2023-09-05T09:28:38.859Z,3.30
2023-09-05T09:31:30.942Z,3.67
2023-09-05T09:34:21.831Z,3.50
2023-09-05T09:37:10.593Z,3.17
2023-09-05T09:40:00.212Z,3.10
2023-09-05T09:42:51.780Z,3.25
2023-09-05T09:45:39.758Z,3.30
2023-09-05T09:48:29.663Z,3.15
2023-09-05T09:51:17.738Z,3.53
2023-09-05T09:54:08.297Z,3.20
2023-09-05T09:57:02.036Z,3.40
2023-09-05T09:59:59.861Z,3.20
2023-09-05T10:02:48.579Z,3.33
2023-09-05T10:05:37.828Z,3.28
2023-09-05T10:08:27.002Z,3.53
2023-09-05T10:11:16.337Z,3.20
2023-09-05T10:14:04.736Z,3.40
2023-09-05T10:16:52.985Z,3.60
2023-09-05T10:19:43.518Z,3.60
2023-09-05T10:22:34.120Z,4.20
2023-09-05T10:25:22.788Z,4.53
2023-09-05T10:28:10.749Z,4.57
2023-09-05T10:31:14.075Z,8.65
2023-09-05T10:34:03.602Z,4.55
2023-09-05T10:36:52.646Z,3.10
2023-09-05T10:39:46.375Z,3.00
2023-09-05T10:42:35.484Z,3.00
2023-09-05T10:45:23.428Z,4.22
2023-09-05T10:48:16.569Z,3.63
2023-09-05T10:51:06.937Z,3.42
2023-09-05T10:53:54.887Z,3.08
2023-09-05T10:56:46.560Z,3.72
2023-09-05T10:59:34.558Z,7.60
2023-09-05T11:02:26.478Z,3.50
2023-09-05T11:05:19.227Z,3.25
2023-09-05T11:08:23.007Z,4.57
2023-09-05T11:11:10.987Z,4.13
2023-09-05T11:13:58.971Z,3.78
2023-09-05T11:16:50.623Z,3.60
2023-09-05T11:19:42.228Z,3.30
2023-09-05T11:22:30.299Z,3.15
2023-09-05T11:25:19.679Z,3.30
2023-09-05T11:28:07.663Z,6.78
2023-09-05T11:30:58.532Z,3.95
2023-09-05T11:33:47.115Z,2.95
2023-09-05T11:36:38.510Z,3.05
2023-09-05T11:39:29.790Z,3.10
2023-09-05T11:42:22.138Z,3.63
2023-09-05T11:45:28.323Z,4.22
2023-09-05T11:48:16.768Z,3.40
2023-09-05T11:51:05.585Z,3.17
2023-09-05T11:53:53.839Z,3.17
2023-09-05T11:56:41.870Z,3.50
2023-09-05T11:59:30.609Z,3.13
2023-09-05T12:02:19.858Z,3.10
2023-09-05T12:05:10.820Z,3.13
2023-09-05T12:07:58.924Z,2.83
2023-09-05T12:10:53.301Z,3.45
2023-09-05T12:13:45.364Z,3.47
2023-09-05T12:16:33.506Z,3.00
2023-09-05T12:19:21.545Z,3.08
2023-09-05T12:22:09.512Z,3.15
2023-09-05T12:25:10.153Z,3.03
2023-09-05T12:28:17.700Z,3.03
2023-09-05T12:31:07.370Z,2.80
2023-09-05T12:33:57.321Z,3.13
2023-09-05T12:36:45.375Z,3.40
2023-09-05T12:39:33.734Z,4.03
2023-09-05T12:42:21.708Z,3.22
2023-09-05T12:45:12.042Z,3.60
2023-09-05T12:48:00.395Z,3.40
2023-09-05T12:50:51.154Z,3.05
2023-09-05T12:53:39.412Z,3.53
2023-09-05T12:56:27.542Z,3.15
2023-09-05T12:59:16.971Z,3.55
2023-09-05T13:02:05.085Z,3.58
2023-09-05T13:04:53.021Z,3.08
2023-09-05T13:07:41.554Z,3.00
2023-09-05T13:10:29.533Z,2.92
2023-09-05T13:13:17.473Z,3.05
2023-09-05T13:16:05.572Z,3.13
2023-09-05T13:18:53.553Z,3.45
2023-09-05T13:21:41.523Z,3.60
2023-09-05T13:24:30.658Z,3.28
2023-09-05T13:27:19.696Z,4.22
2023-09-05T13:30:08.386Z,3.30
2023-09-05T13:32:56.732Z,3.53
2023-09-05T13:35:45.700Z,3.88
2023-09-05T13:38:33.659Z,4.00
2023-09-05T13:41:21.639Z,3.40
2023-09-05T13:44:09.582Z,2.85
2023-09-05T13:46:57.517Z,2.63
2023-09-05T13:49:45.466Z,3.33
2023-09-05T13:52:33.415Z,2.78
2023-09-05T13:55:21.376Z,3.00
2023-09-05T13:58:09.712Z,3.10
2023-09-05T14:00:58.774Z,3.35
2023-09-05T14:03:47.077Z,3.30
2023-09-05T14:06:35.129Z,3.00
2023-09-05T14:09:23.213Z,2.85
2023-09-05T14:12:11.286Z,3.30
2023-09-05T14:14:59.756Z,3.00
2023-09-05T14:17:47.824Z,3.20
2023-09-05T14:20:35.785Z,3.28
2023-09-05T14:23:23.719Z,2.97
2023-09-05T14:26:11.756Z,2.90
2023-09-05T14:29:05.167Z,3.10
2023-09-05T14:31:53.190Z,2.45
2023-09-05T14:34:41.159Z,3.20
2023-09-05T14:37:29.348Z,2.78
2023-09-05T14:40:17.467Z,3.83
2023-09-05T14:43:06.932Z,2.90
2023-09-05T14:45:55.096Z,3.08
2023-09-05T14:48:43.127Z,3.40
2023-09-05T14:51:31.470Z,3.00
2023-09-05T14:54:19.517Z,2.70
2023-09-05T14:57:07.545Z,2.90
2023-09-05T14:59:56.709Z,2.60
2023-09-05T15:02:44.830Z,2.88
2023-09-05T15:05:32.939Z,3.22
2023-09-05T15:08:20.914Z,3.55
2023-09-05T15:11:09.010Z,3.22
2023-09-05T15:13:57.015Z,3.33
2023-09-05T15:16:46.504Z,2.80
2023-09-05T15:19:35.033Z,2.92
2023-09-05T15:22:23.288Z,2.70
2023-09-05T15:25:19.178Z,3.13
2023-09-05T15:28:07.409Z,2.92
2023-09-05T15:30:55.500Z,3.10
2023-09-05T15:33:43.739Z,2.80
2023-09-05T15:36:32.410Z,2.90
2023-09-05T15:39:20.478Z,2.80
2023-09-05T15:42:09.612Z,3.22
2023-09-05T15:44:57.775Z,3.00
2023-09-05T15:47:46.626Z,3.08
2023-09-05T15:50:34.848Z,2.45
2023-09-05T15:53:22.929Z,2.53
2023-09-05T15:56:11.665Z,2.83
2023-09-05T15:58:59.610Z,3.50
2023-09-05T16:01:47.572Z,3.00
2023-09-05T16:04:35.960Z,2.60
2023-09-05T16:07:23.983Z,3.20
2023-09-05T16:10:13.674Z,3.05
2023-09-05T16:13:01.676Z,2.95
2023-09-05T16:15:49.712Z,2.80
2023-09-05T16:18:38.161Z,2.83
2023-09-05T16:21:29.111Z,3.03
2023-09-05T16:24:17.209Z,2.75
2023-09-05T16:27:05.407Z,2.90
2023-09-05T16:29:54.681Z,3.00
2023-09-05T16:32:43.608Z,2.78
2023-09-05T16:35:31.598Z,2.88
2023-09-05T16:38:20.065Z,2.70
2023-09-05T16:41:12.286Z,3.00
2023-09-05T16:44:01.484Z,2.75
2023-09-05T16:46:49.497Z,2.85
2023-09-05T16:49:40.712Z,3.20
2023-09-05T16:52:28.714Z,2.92
2023-09-05T16:55:16.846Z,2.92
2023-09-05T16:58:06.366Z,3.22
2023-09-05T17:00:54.469Z,2.75
2023-09-05T17:03:42.634Z,2.80
2023-09-05T17:06:30.656Z,2.90
2023-09-05T17:09:18.629Z,2.70
2023-09-05T17:12:07.088Z,2.78
2023-09-05T17:14:55.037Z,2.92
2023-09-05T17:17:43.286Z,2.78
2023-09-05T17:20:31.269Z,2.63
2023-09-05T17:23:20.876Z,2.63
2023-09-05T17:26:09.995Z,2.40
2023-09-05T17:28:57.919Z,2.58
2023-09-05T17:31:45.869Z,2.47
2023-09-05T17:34:33.932Z,3.83
2023-09-05T17:37:22.190Z,3.03
2023-09-05T17:40:11.960Z,2.25
2023-09-05T17:43:00.042Z,3.17
2023-09-05T17:45:48.058Z,3.05
2023-09-05T17:48:36.246Z,2.70
2023-09-05T17:51:24.356Z,2.90
2023-09-05T17:54:12.423Z,2.67
2023-09-05T17:57:00.527Z,3.25
2023-09-05T17:59:48.545Z,2.75
2023-09-05T18:02:36.675Z,2.92
2023-09-05T18:05:24.855Z,2.70
2023-09-05T18:08:15.235Z,2.70
2023-09-05T18:11:05.707Z,3.10
2023-09-05T18:13:53.625Z,2.60
2023-09-05T18:16:41.609Z,2.67
2023-09-05T18:19:29.885Z,3.55
2023-09-05T18:22:18.008Z,2.47
2023-09-05T18:25:06.235Z,2.90
2023-09-05T18:27:54.288Z,3.10
2023-09-05T18:30:42.329Z,3.13
2023-09-05T18:33:30.347Z,2.90
2023-09-05T18:36:18.542Z,3.25
2023-09-05T18:39:06.824Z,3.42
2023-09-05T18:41:54.912Z,3.30
2023-09-05T18:44:43.851Z,3.00
2023-09-05T18:47:31.822Z,3.13
2023-09-05T18:50:20.515Z,2.95
2023-09-05T18:53:08.564Z,2.88
2023-09-05T18:55:56.639Z,2.72
2023-09-05T18:58:44.559Z,2.83
2023-09-05T19:01:32.608Z,2.85
2023-09-05T19:04:21.271Z,3.10
2023-09-05T19:07:10.274Z,3.05
2023-09-05T19:09:58.542Z,3.20
2023-09-05T19:12:46.592Z,3.10
2023-09-05T19:15:37.197Z,2.90
2023-09-05T19:18:26.970Z,2.78
2023-09-05T19:21:15.375Z,2.92
2023-09-05T19:24:04.113Z,3.00
2023-09-05T19:26:52.182Z,3.10
2023-09-05T19:29:40.100Z,2.70
2023-09-05T19:32:29.682Z,3.03
2023-09-05T19:35:19.084Z,2.70
2023-09-05T19:38:07.067Z,2.72
2023-09-05T19:40:55.034Z,2.70
2023-09-05T19:43:44.951Z,2.90
2023-09-05T19:46:33.592Z,2.92
2023-09-05T19:49:21.856Z,2.80
2023-09-05T19:52:09.909Z,2.72
2023-09-05T19:55:01.456Z,3.10
2023-09-05T19:57:49.503Z,2.60
2023-09-05T20:00:37.686Z,3.15
2023-09-05T20:03:26.253Z,2.60
2023-09-05T20:06:14.600Z,2.83
2023-09-05T20:09:02.679Z,2.72
2023-09-05T20:11:52.799Z,2.88
2023-09-05T20:14:40.805Z,3.08
2023-09-05T20:17:29.026Z,3.00
2023-09-05T20:20:17.027Z,2.95
2023-09-05T20:23:05.332Z,2.58
2023-09-05T20:25:53.395Z,2.97
2023-09-05T20:28:41.476Z,3.00
2023-09-05T20:31:29.457Z,2.70
2023-09-05T20:34:17.502Z,3.05
2023-09-05T20:37:06.039Z,3.00
2023-09-05T20:39:54.112Z,2.90
2023-09-05T20:42:42.165Z,2.70
2023-09-05T20:45:30.666Z,2.90
2023-09-05T20:48:18.917Z,2.80
2023-09-05T20:51:07.100Z,3.05
2023-09-05T20:53:55.103Z,2.70
2023-09-05T20:56:43.377Z,2.75
2023-09-05T20:59:31.882Z,2.80
2023-09-05T21:02:20.090Z,3.25
2023-09-05T21:05:08.357Z,2.78
2023-09-05T21:07:56.367Z,2.58
2023-09-05T21:10:44.318Z,2.80
2023-09-05T21:13:32.465Z,2.60
2023-09-05T21:16:20.453Z,3.00
2023-09-05T21:19:08.844Z,2.72
2023-09-05T21:21:57.140Z,2.70
2023-09-05T21:24:45.411Z,3.05
2023-09-05T21:27:33.505Z,2.80
2023-09-05T21:30:21.673Z,2.53
2023-09-05T21:33:09.720Z,3.25
2023-09-05T21:35:57.711Z,2.90
2023-09-05T21:38:45.725Z,3.00
2023-09-05T21:41:33.718Z,2.90
2023-09-05T21:44:21.687Z,3.08
2023-09-05T21:47:09.716Z,3.40
2023-09-05T21:49:57.869Z,3.55
2023-09-05T21:52:45.878Z,2.70
2023-09-05T21:55:33.825Z,2.80
2023-09-05T21:58:21.864Z,2.70
2023-09-05T22:01:09.830Z,2.80
2023-09-05T22:03:58.006Z,2.85
2023-09-05T22:06:46.318Z,2.70
2023-09-05T22:09:34.441Z,3.50
2023-09-05T22:12:22.528Z,2.97
2023-09-05T22:15:11.106Z,3.25
2023-09-05T22:17:59.290Z,2.90
2023-09-05T22:20:57.852Z,2.83
2023-09-05T22:23:47.176Z,3.10
2023-09-05T22:26:35.119Z,3.25
2023-09-05T22:29:23.547Z,3.08
2023-09-05T22:32:12.412Z,2.90
2023-09-05T22:35:00.472Z,2.95
2023-09-05T22:37:48.402Z,2.92
2023-09-05T22:40:36.447Z,3.67
2023-09-05T22:43:24.434Z,3.10
2023-09-05T22:46:12.501Z,3.33
2023-09-05T22:49:00.705Z,3.70
2023-09-05T22:51:48.840Z,3.65
2023-09-05T22:54:38.246Z,3.20
2023-09-05T22:57:28.631Z,3.05
2023-09-05T23:00:22.065Z,3.10
2023-09-05T23:03:10.195Z,3.25
2023-09-05T23:05:58.298Z,3.08
2023-09-05T23:08:46.283Z,3.30
2023-09-05T23:11:34.229Z,3.28
2023-09-05T23:14:23.021Z,3.55
2023-09-05T23:17:12.924Z,3.47
2023-09-05T23:20:01.160Z,3.63
2023-09-05T23:22:49.131Z,3.22
2023-09-05T23:25:37.593Z,3.58
2023-09-05T23:28:27.235Z,3.28
2023-09-05T23:31:15.772Z,3.30
2023-09-05T23:34:03.846Z,3.30
2023-09-05T23:36:53.470Z,3.95
2023-09-05T23:39:44.639Z,3.33
2023-09-05T23:42:32.727Z,3.80
2023-09-05T23:45:20.742Z,3.70
2023-09-05T23:48:08.785Z,3.65
2023-09-05T23:50:57.403Z,3.70
2023-09-05T23:53:46.976Z,4.22
2023-09-05T23:56:35.117Z,3.75
2023-09-05T23:59:23.345Z,3.92
